Jennifer — WDF6480 — position and weather

sailwx.info

Track history (hours):
 
Tides and Currents Weather Stations Pressure Air Temp Water Temp Dewpoint Dewpoint Depression Visibility Wind Speed Wind Dir Waves Ship Positions

Jennifer

Owner: John W. Stone Oil Distributor, L.L.C., Gretna, LA. More information available from US FCC via Universal Licensing System and Coast Guard Vessel Documentation Center.

Last reported at 2015-Jul-02 03:21 UTC. Time now 2015-Jul-03 07:56 UTC.
Position N 29°55' W 090°04'.

Length 17 m; draft 3 m.

Type: Tug. MMSI: 367474690.

Date/timePositionNaut miles runAvg speedWind from/ knotsBaromVisibWave heightAir tempDewpointWater temp
2015-Jul-02 03:21N 29°55' W 090°04'0 0.0
2015-Jul-02 01:29N 29°55' W 090°04'8 0.4
2015-Jul-01 05:12N 29°54' W 089°54'6 9.3
2015-Jul-01 04:33N 29°57' W 090°00'3 3.0
2015-Jul-01 03:31N 29°55' W 090°04'1 0.5
2015-Jul-01 02:32N 29°56' W 090°03'1 0.7
2015-Jul-01 01:32N 29°55' W 090°04'0 0.0
2015-Jul-01 00:29N 29°55' W 090°04'29 2.6
2015-Jun-30 13:05N 29°33' W 090°26'3 5.6
2015-Jun-30 12:33N 29°34' W 090°29'5 5.3
2015-Jun-30 11:33N 29°35' W 090°35'5 5.5
2015-Jun-30 10:34N 29°36' W 090°41'3 3.4
2015-Jun-30 09:33N 29°34' W 090°44'5 5.4
2015-Jun-30 08:33N 29°32' W 090°50'  
2015-Jun-26 07:29N 29°36' W 090°58'5 5.1
2015-Jun-26 06:32N 29°33' W 090°54'5 4.9
2015-Jun-26 05:33N 29°32' W 090°49'4 4.2
2015-Jun-26 04:33N 29°34' W 090°44'4 3.7
2015-Jun-26 03:33N 29°37' W 090°41'5 4.8
2015-Jun-26 02:33N 29°35' W 090°36'3 2.9
2015-Jun-26 01:33N 29°34' W 090°33'37 1.8
2015-Jun-25 05:24N 29°55' W 089°58'0 0.0
2015-Jun-25 04:21N 29°55' W 089°58'0 0.0
2015-Jun-25 03:21N 29°55' W 089°58'0 0.0
2015-Jun-25 02:24N 29°55' W 089°58'0 0.0
2015-Jun-25 01:33N 29°55' W 089°58'0 0.0
2015-Jun-25 00:31N 29°55' W 089°58'0 0.0
2015-Jun-24 23:29N 29°55' W 089°58'0 0.0
2015-Jun-24 22:31N 29°55' W 089°58'0 0.0
2015-Jun-24 21:33N 29°55' W 089°58'0 0.0
2015-Jun-24 20:30N 29°55' W 089°58'0 0.0
2015-Jun-24 19:28N 29°55' W 089°58'0 0.0
2015-Jun-24 18:33N 29°55' W 089°58'0 0.0
2015-Jun-24 17:25N 29°55' W 089°58'0 0.1
2015-Jun-24 16:29N 29°55' W 089°58'4 4.8
2015-Jun-24 15:33N 29°56' W 090°03'0 0.3
2015-Jun-24 14:31N 29°56' W 090°04'0 0.2
2015-Jun-24 13:33N 29°55' W 090°04'0 0.0
2015-Jun-24 12:24N 29°55' W 090°04'0 0.0
2015-Jun-24 11:32N 29°55' W 090°04'  
Track history (hours):
 
Tides and Currents Weather Stations Pressure Air Temp Water Temp Dewpoint Dewpoint Depression Visibility Wind Speed Wind Dir Waves Ship Positions

Jennifer

Owner: John W. Stone Oil Distributor, L.L.C., Gretna, LA. More information available from US FCC via Universal Licensing System and Coast Guard Vessel Documentation Center.

Last reported at 2015-Jul-02 03:21 UTC. Time now 2015-Jul-03 07:56 UTC.
Position N 29°55' W 090°04'.

Length 17 m; draft 3 m.

Type: Tug. MMSI: 367474690.

Date/timePositionNaut miles runAvg speedWind from/ knotsBaromVisibWave heightAir tempDewpointWater temp
2015-Jul-02 03:21N 29°55' W 090°04'0 0.0
2015-Jul-02 01:29N 29°55' W 090°04'8 0.4
2015-Jul-01 05:12N 29°54' W 089°54'6 9.3
2015-Jul-01 04:33N 29°57' W 090°00'3 3.0
2015-Jul-01 03:31N 29°55' W 090°04'1 0.5
2015-Jul-01 02:32N 29°56' W 090°03'1 0.7
2015-Jul-01 01:32N 29°55' W 090°04'0 0.0
2015-Jul-01 00:29N 29°55' W 090°04'29 2.6
2015-Jun-30 13:05N 29°33' W 090°26'3 5.6
2015-Jun-30 12:33N 29°34' W 090°29'5 5.3
2015-Jun-30 11:33N 29°35' W 090°35'5 5.5
2015-Jun-30 10:34N 29°36' W 090°41'3 3.4
2015-Jun-30 09:33N 29°34' W 090°44'5 5.4
2015-Jun-30 08:33N 29°32' W 090°50'  
2015-Jun-26 07:29N 29°36' W 090°58'5 5.1
2015-Jun-26 06:32N 29°33' W 090°54'5 4.9
2015-Jun-26 05:33N 29°32' W 090°49'4 4.2
2015-Jun-26 04:33N 29°34' W 090°44'4 3.7
2015-Jun-26 03:33N 29°37' W 090°41'5 4.8
2015-Jun-26 02:33N 29°35' W 090°36'3 2.9
2015-Jun-26 01:33N 29°34' W 090°33'37 1.8
2015-Jun-25 05:24N 29°55' W 089°58'0 0.0
2015-Jun-25 04:21N 29°55' W 089°58'0 0.0
2015-Jun-25 03:21N 29°55' W 089°58'0 0.0
2015-Jun-25 02:24N 29°55' W 089°58'0 0.0
2015-Jun-25 01:33N 29°55' W 089°58'0 0.0
2015-Jun-25 00:31N 29°55' W 089°58'0 0.0
2015-Jun-24 23:29N 29°55' W 089°58'0 0.0
2015-Jun-24 22:31N 29°55' W 089°58'0 0.0
2015-Jun-24 21:33N 29°55' W 089°58'0 0.0
2015-Jun-24 20:30N 29°55' W 089°58'0 0.0
2015-Jun-24 19:28N 29°55' W 089°58'0 0.0
2015-Jun-24 18:33N 29°55' W 089°58'0 0.0
2015-Jun-24 17:25N 29°55' W 089°58'0 0.1
2015-Jun-24 16:29N 29°55' W 089°58'4 4.8
2015-Jun-24 15:33N 29°56' W 090°03'0 0.3
2015-Jun-24 14:31N 29°56' W 090°04'0 0.2
2015-Jun-24 13:33N 29°55' W 090°04'0 0.0
2015-Jun-24 12:24N 29°55' W 090°04'0 0.0
2015-Jun-24 11:32N 29°55' W 090°04'  

Dump ship's entire track history